Time;durP1;ratioP1;P1;durP2;ratioP2;P2;SDS_P1;SDS_P2;PMS_P1;PMS_P2;Temp;Humidity;BMP_temperature;BMP_pressure;BME280_temperature;BME280_humidity;BME280_pressure;Samples;Min_cycle;Max_cycle;Signal;HPM_P1;HPM_P2
2023/01/12 00:01:23;;;;;;;7.03;2.27;;;;;;;7.40;100.00;100624.63;4999075;28;20672;-74
2023/01/12 00:03:49;;;;;;;6.40;2.20;;;;;;;7.40;100.00;100628.91;4993723;28;20559;-76
2023/01/12 00:06:14;;;;;;;7.83;2.30;;;;;;;7.40;100.00;100622.06;4994480;28;20211;-76
2023/01/12 00:08:40;;;;;;;3.80;2.20;;;;;;;7.35;100.00;100623.72;4998531;28;20180;-75
2023/01/12 00:11:05;;;;;;;6.57;2.23;;;;;;;7.32;100.00;100628.81;4998055;28;20620;-76
2023/01/12 00:13:32;;;;;;;5.60;2.00;;;;;;;7.25;100.00;100630.47;4990652;28;20211;-73
2023/01/12 00:18:43;;;;;;;6.30;2.10;;;;;;;7.26;100.00;100632.22;4996142;28;20196;-76
2023/01/12 00:21:09;;;;;;;4.07;1.70;;;;;;;7.24;100.00;100626.16;4999407;28;20204;-74
2023/01/12 00:23:34;;;;;;;5.57;2.13;;;;;;;7.24;100.00;100618.44;4995762;28;20201;-74
2023/01/12 00:25:59;;;;;;;6.23;2.30;;;;;;;7.23;100.00;100616.72;5003095;28;20210;-74
2023/01/12 00:28:25;;;;;;;4.93;2.00;;;;;;;7.25;100.00;100614.19;4993942;28;20191;-74
2023/01/12 00:30:50;;;;;;;6.70;2.43;;;;;;;7.19;100.00;100611.53;5000312;28;20185;-74
2023/01/12 00:33:15;;;;;;;4.87;2.07;;;;;;;7.14;100.00;100607.19;4998083;28;20226;-73
2023/01/12 00:35:41;;;;;;;5.50;2.70;;;;;;;7.17;100.00;100608.97;4995967;28;20194;-74
2023/01/12 00:38:06;;;;;;;8.20;2.40;;;;;;;7.22;100.00;100599.53;4997166;28;20314;-74
2023/01/12 00:40:31;;;;;;;5.23;1.90;;;;;;;7.27;100.00;100608.19;4993312;28;20820;-74
2023/01/12 00:45:41;;;;;;;3.17;1.90;;;;;;;7.34;100.00;100609.09;4996056;28;20215;-74
2023/01/12 00:48:11;;;;;;;4.53;2.30;;;;;;;7.38;100.00;100599.69;4997607;28;20199;-75
2023/01/12 00:50:37;;;;;;;6.37;2.37;;;;;;;7.37;100.00;100601.41;4996484;28;20793;-74
2023/01/12 00:53:02;;;;;;;5.70;2.17;;;;;;;7.41;100.00;100597.16;4991435;28;20343;-73
2023/01/12 00:55:28;;;;;;;4.67;1.90;;;;;;;7.42;100.00;100584.28;4997030;28;20182;-74
2023/01/12 00:57:53;;;;;;;5.83;2.10;;;;;;;7.42;100.00;100573.97;4996352;28;20585;-74
2023/01/12 01:00:18;;;;;;;4.60;2.07;;;;;;;7.42;100.00;100584.28;4993537;28;20183;-73
2023/01/12 01:02:44;;;;;;;5.77;2.27;;;;;;;7.40;100.00;100573.13;4991587;28;20214;-75
2023/01/12 01:05:09;;;;;;;5.60;2.23;;;;;;;7.41;100.00;100581.69;4997360;28;20289;-75
2023/01/12 01:07:34;;;;;;;6.03;2.53;;;;;;;7.37;100.00;100580.81;5000186;28;20191;-74
2023/01/12 01:10:00;;;;;;;5.17;2.07;;;;;;;7.33;100.00;100600.50;5000441;28;20188;-74
2023/01/12 01:12:25;;;;;;;6.37;2.30;;;;;;;7.29;100.00;100593.63;5003311;28;20294;-75
2023/01/12 01:14:52;;;;;;;5.40;2.13;;;;;;;7.27;100.00;100594.44;4996566;28;20254;-74
2023/01/12 01:17:17;;;;;;;6.23;2.20;;;;;;;7.22;100.00;100604.69;5001460;28;20181;-75
2023/01/12 01:19:43;;;;;;;8.47;2.37;;;;;;;7.25;100.00;100609.88;5000456;28;20713;-75
2023/01/12 01:22:08;;;;;;;8.00;2.93;;;;;;;7.25;100.00;100619.31;4994318;28;20691;-76
2023/01/12 01:24:33;;;;;;;6.90;2.20;;;;;;;7.29;100.00;100609.06;4995206;28;20184;-74
2023/01/12 01:27:01;;;;;;;6.37;2.63;;;;;;;7.33;100.00;100609.97;4994640;28;20223;-75
2023/01/12 01:29:26;;;;;;;5.93;2.27;;;;;;;7.34;100.00;100606.53;5031554;28;20185;-75
2023/01/12 01:31:55;;;;;;;6.53;2.20;;;;;;;7.38;100.00;100599.69;5021908;28;20196;-74
2023/01/12 01:34:22;;;;;;;5.23;2.17;;;;;;;7.39;100.00;100602.31;5002157;28;20206;-73
2023/01/12 01:36:47;;;;;;;4.80;2.63;;;;;;;7.44;100.00;100602.34;4995903;28;20177;-75
2023/01/12 01:39:13;;;;;;;6.10;2.40;;;;;;;7.47;100.00;100605.78;5000978;28;20249;-74
2023/01/12 01:41:38;;;;;;;4.90;2.40;;;;;;;7.48;100.00;100606.69;5004085;28;20722;-74
2023/01/12 01:44:28;;;;;;;7.23;2.47;;;;;;;7.54;100.00;100617.00;5002084;28;20208;-73
2023/01/12 01:47:09;;;;;;;5.93;2.47;;;;;;;7.57;100.00;100606.75;4991222;28;20705;-74
2023/01/12 01:49:44;;;;;;;5.47;1.87;;;;;;;7.59;100.00;100607.63;4994285;28;20191;-73
2023/01/12 01:52:19;;;;;;;4.53;2.07;;;;;;;7.65;100.00;100616.22;4998027;28;20192;-74
2023/01/12 01:54:54;;;;;;;4.63;1.63;;;;;;;7.67;100.00;100610.25;4994506;28;20603;-74
2023/01/12 01:57:20;;;;;;;8.20;2.43;;;;;;;7.70;100.00;100607.72;4995582;28;20212;-73
2023/01/12 01:59:52;;;;;;;4.87;2.13;;;;;;;7.75;100.00;100612.91;4996498;28;20192;-74
2023/01/12 02:02:18;;;;;;;4.13;1.87;;;;;;;7.74;100.00;100613.75;4996077;28;20236;-75
2023/01/12 02:04:44;;;;;;;5.43;1.83;;;;;;;7.74;100.00;100611.16;4993749;28;20223;-74
2023/01/12 02:07:10;;;;;;;6.17;2.47;;;;;;;7.74;100.00;100601.72;4997803;28;20291;-74
2023/01/12 02:09:35;;;;;;;5.70;2.17;;;;;;;7.81;100.00;100612.94;4995646;28;20244;-74
2023/01/12 02:17:50;;;;;;;5.70;2.37;;;;;;;7.75;100.00;100559.66;4994562;28;20187;-74
2023/01/12 02:20:47;;;;;;;6.53;2.23;;;;;;;7.71;100.00;100557.03;4989341;28;20206;-75
2023/01/12 02:23:21;;;;;;;5.67;2.40;;;;;;;7.66;100.00;100551.88;4994811;28;20215;-75
2023/01/12 02:26:04;;;;;;;6.70;2.40;;;;;;;7.63;100.00;100559.56;4995355;28;20251;-74
2023/01/12 02:29:08;;;;;;;4.87;2.47;;;;;;;7.61;100.00;100545.81;4995948;28;20735;-73
2023/01/12 02:32:00;;;;;;;7.80;2.40;;;;;;;7.57;100.00;100550.06;4995115;28;20198;-75
2023/01/12 02:34:44;;;;;;;6.53;2.20;;;;;;;7.51;100.00;100565.47;4995003;28;20200;-75
2023/01/12 02:37:18;;;;;;;7.40;2.47;;;;;;;7.55;100.00;100566.38;4994682;28;20197;-75
2023/01/12 02:40:05;;;;;;;7.10;2.70;;;;;;;7.56;100.00;100565.53;4996952;28;20228;-74
2023/01/12 02:42:41;;;;;;;8.27;2.70;;;;;;;7.55;100.00;100559.50;4994735;28;20212;-76
2023/01/12 02:45:18;;;;;;;6.27;2.50;;;;;;;7.59;100.00;100542.34;5003824;28;20241;-74
2023/01/12 02:47:58;;;;;;;7.57;2.63;;;;;;;7.55;100.00;100546.63;5001634;28;20192;-74
2023/01/12 02:50:34;;;;;;;7.87;2.57;;;;;;;7.52;100.00;100544.03;4999055;28;20274;-74
2023/01/12 02:53:08;;;;;;;6.83;2.33;;;;;;;7.48;100.00;100545.72;5002899;28;20306;-74
2023/01/12 02:55:34;;;;;;;6.37;2.30;;;;;;;7.48;100.00;100540.56;4997285;28;20188;-74
2023/01/12 02:58:01;;;;;;;6.10;2.20;;;;;;;7.45;100.00;100543.09;5000652;28;20212;-74
2023/01/12 03:00:27;;;;;;;5.03;2.20;;;;;;;7.45;100.00;100550.00;4997968;28;20743;-74
2023/01/12 03:02:52;;;;;;;6.27;2.70;;;;;;;7.40;100.00;100549.06;5000899;28;20283;-75
2023/01/12 03:05:17;;;;;;;6.17;2.67;;;;;;;7.37;100.00;100544.78;5000675;28;20311;-74
2023/01/12 03:07:48;;;;;;;7.30;2.70;;;;;;;7.38;100.00;100537.91;5001449;28;20198;-74
2023/01/12 03:10:34;;;;;;;9.43;3.27;;;;;;;7.40;100.00;100529.34;5004046;28;20883;-75
2023/01/12 03:13:06;;;;;;;7.03;2.60;;;;;;;7.36;100.00;100530.19;5001282;28;20370;-75
2023/01/12 03:15:38;;;;;;;7.97;2.50;;;;;;;7.38;100.00;100525.03;5006046;28;20203;-75
2023/01/12 03:18:25;;;;;;;8.00;2.70;;;;;;;7.37;100.00;100516.44;5004249;28;20231;-74
2023/01/12 03:20:58;;;;;;;7.13;2.87;;;;;;;7.40;100.00;100523.34;5011543;28;20203;-76
2023/01/12 03:23:32;;;;;;;7.80;2.93;;;;;;;7.45;100.00;100531.97;4999192;28;20220;-72
2023/01/12 03:26:01;;;;;;;7.97;2.90;;;;;;;7.42;100.00;100527.63;4997634;28;20227;-72
2023/01/12 03:28:32;;;;;;;6.10;2.43;;;;;;;7.38;100.00;100525.03;4998622;28;20188;-78
2023/01/12 03:31:02;;;;;;;8.30;2.60;;;;;;;7.39;100.00;100526.75;5001181;28;20201;-75
2023/01/12 03:33:28;;;;;;;8.00;2.60;;;;;;;7.44;100.00;100518.22;5003027;28;20204;-75
2023/01/12 03:36:18;;;;;;;6.83;3.00;;;;;;;7.45;100.00;100521.66;5001047;28;20184;-76
2023/01/12 03:38:46;;;;;;;5.63;2.50;;;;;;;7.46;100.00;100524.25;5007862;28;20200;-76
2023/01/12 03:41:24;;;;;;;6.73;3.03;;;;;;;7.46;100.00;100513.09;5037190;28;20179;-77
2023/01/12 03:43:53;;;;;;;6.43;2.87;;;;;;;7.46;100.00;100513.09;5026746;28;20196;-73
2023/01/12 03:46:26;;;;;;;5.63;2.60;;;;;;;7.41;100.00;100509.59;5002298;28;20270;-72
2023/01/12 03:49:13;;;;;;;7.67;2.90;;;;;;;7.38;100.00;100507.88;5000760;28;20234;-76
2023/01/12 03:51:44;;;;;;;5.07;2.20;;;;;;;7.40;100.00;100513.03;4999095;28;20208;-77
2023/01/12 03:54:11;;;;;;;8.07;2.77;;;;;;;7.44;100.00;100514.78;4993355;28;20247;-75
2023/01/12 03:56:39;;;;;;;8.20;2.70;;;;;;;7.41;100.00;100509.59;4994493;28;20226;-75
2023/01/12 03:59:05;;;;;;;9.30;3.07;;;;;;;7.41;100.00;100513.03;4998308;28;20542;-76
2023/01/12 04:01:31;;;;;;;5.90;2.77;;;;;;;7.44;100.00;100502.75;4996846;28;20679;-75
2023/01/12 04:03:56;;;;;;;7.47;2.53;;;;;;;7.42;100.00;100501.03;4993872;28;20232;-76
2023/01/12 04:06:22;;;;;;;6.30;2.77;;;;;;;7.42;100.00;100506.19;4998584;28;20719;-74
2023/01/12 04:08:48;;;;;;;7.47;2.57;;;;;;;7.42;100.00;100516.47;4999820;28;20284;-74
2023/01/12 04:13:57;;;;;;;10.10;2.73;;;;;;;7.53;100.00;100508.84;4998731;28;20298;-73
2023/01/12 04:16:22;;;;;;;10.37;3.20;;;;;;;7.55;100.00;100508.00;4998558;28;20226;-74
2023/01/12 04:18:47;;;;;;;6.77;2.67;;;;;;;7.56;100.00;100511.44;4998612;28;20275;-73
2023/01/12 04:23:57;;;;;;;6.07;2.73;;;;;;;7.68;100.00;100514.09;5000991;28;20223;-76
2023/01/12 04:26:23;;;;;;;5.63;2.37;;;;;;;7.69;100.00;100507.22;4995401;28;20216;-74
2023/01/12 04:28:48;;;;;;;5.97;2.53;;;;;;;7.70;100.00;100507.25;4992400;28;20185;-74
2023/01/12 04:31:14;;;;;;;10.27;3.20;;;;;;;7.72;100.00;100504.66;4991073;28;20247;-75
2023/01/12 04:33:40;;;;;;;10.53;2.70;;;;;;;7.73;100.00;100506.41;4993002;28;20219;-76
2023/01/12 04:36:06;;;;;;;7.40;2.57;;;;;;;7.72;100.00;100492.63;4992567;28;20196;-75
2023/01/12 04:38:32;;;;;;;7.27;2.37;;;;;;;7.74;100.00;100501.25;4995118;28;20191;-73
2023/01/12 04:40:57;;;;;;;7.90;2.77;;;;;;;7.72;100.00;100505.50;4993684;28;20583;-74
2023/01/12 04:43:22;;;;;;;8.63;2.80;;;;;;;7.72;100.00;100508.09;4994815;28;20647;-75
2023/01/12 04:45:47;;;;;;;6.23;2.40;;;;;;;7.75;100.00;100507.28;4996933;28;20645;-74
2023/01/12 04:48:14;;;;;;;8.40;2.63;;;;;;;7.77;100.00;100515.88;4997090;28;20650;-74
2023/01/12 04:50:40;;;;;;;5.47;2.37;;;;;;;7.76;100.00;100509.00;4995193;28;20188;-75
2023/01/12 04:53:08;;;;;;;8.20;3.03;;;;;;;7.77;100.00;100513.31;4994499;28;21120;-75
2023/01/12 04:55:35;;;;;;;6.73;2.60;;;;;;;7.77;100.00;100519.28;4998413;28;20184;-75
2023/01/12 04:58:01;;;;;;;7.63;2.77;;;;;;;7.81;100.00;100519.31;5000342;28;20634;-76
2023/01/12 05:00:26;;;;;;;10.03;2.67;;;;;;;7.80;100.00;100526.19;4999527;28;20199;-73
2023/01/12 05:03:01;;;;;;;9.07;2.70;;;;;;;7.82;100.00;100513.31;5004322;28;20208;-75
2023/01/12 05:05:28;;;;;;;5.43;2.23;;;;;;;7.76;100.00;100509.84;5002252;28;20239;-74
2023/01/12 05:10:38;;;;;;;8.43;2.57;;;;;;;7.72;100.00;100512.41;5003402;28;20274;-74
2023/01/12 05:13:03;;;;;;;7.63;2.40;;;;;;;7.70;100.00;100508.94;5004104;28;20595;-74
2023/01/12 05:15:28;;;;;;;6.80;3.10;;;;;;;7.65;100.00;100500.31;5004332;28;20188;-74
2023/01/12 05:17:55;;;;;;;11.13;2.93;;;;;;;7.64;100.00;100491.75;4997819;28;20199;-74
2023/01/12 05:20:20;;;;;;;5.23;2.10;;;;;;;7.59;100.00;100488.25;5000806;28;20564;-74
2023/01/12 05:22:47;;;;;;;5.90;2.33;;;;;;;7.55;100.00;100492.53;5001305;28;20211;-75
2023/01/12 05:25:13;;;;;;;8.27;3.07;;;;;;;7.51;100.00;100479.63;4999985;28;20207;-75
2023/01/12 05:27:38;;;;;;;5.93;2.27;;;;;;;7.54;100.00;100485.66;5001943;28;20188;-74
2023/01/12 05:30:04;;;;;;;7.00;3.17;;;;;;;7.56;100.00;100472.81;5004113;28;20729;-75
2023/01/12 05:32:30;;;;;;;7.73;2.80;;;;;;;7.52;100.00;100473.63;5004508;28;20763;-74
2023/01/12 05:34:55;;;;;;;14.20;3.50;;;;;;;7.50;100.00;100460.72;4988374;28;20595;-73
2023/01/12 05:37:20;;;;;;;6.30;2.53;;;;;;;7.51;100.00;100453.88;4992299;28;20240;-74
2023/01/12 05:39:45;;;;;;;12.53;3.03;;;;;;;7.55;100.00;100447.91;4996264;28;20214;-74
2023/01/12 05:44:55;;;;;;;7.97;2.43;;;;;;;7.59;100.00;100436.75;5003048;28;20262;-74
2023/01/12 05:47:20;;;;;;;7.93;2.57;;;;;;;7.60;100.00;100438.47;5007833;28;20714;-75
2023/01/12 05:49:45;;;;;;;6.17;2.60;;;;;;;7.62;100.00;100434.19;5007810;28;20200;-74
2023/01/12 05:52:10;;;;;;;9.50;2.97;;;;;;;7.65;100.00;100429.06;5020003;28;20200;-76
2023/01/12 05:54:36;;;;;;;6.73;3.27;;;;;;;7.67;100.00;100423.91;5017474;28;20266;-75
2023/01/12 05:57:01;;;;;;;7.63;3.13;;;;;;;7.69;100.00;100428.25;5004084;28;20211;-74
2023/01/12 05:59:26;;;;;;;9.10;2.90;;;;;;;7.72;100.00;100417.94;5002627;28;20195;-74
2023/01/12 06:01:52;;;;;;;6.60;2.63;;;;;;;7.74;100.00;100416.22;4995668;28;20219;-74
2023/01/12 06:04:17;;;;;;;7.97;2.77;;;;;;;7.73;100.00;100406.78;4994751;28;20222;-75
2023/01/12 06:06:42;;;;;;;8.10;2.67;;;;;;;7.75;100.00;100409.38;4992294;28;20212;-73
2023/01/12 06:09:08;;;;;;;6.77;2.60;;;;;;;7.76;100.00;100418.81;5002108;28;20275;-75
2023/01/12 06:14:17;;;;;;;6.87;2.23;;;;;;;7.82;100.00;100412.84;4997773;28;20242;-73
2023/01/12 06:16:43;;;;;;;5.37;2.13;;;;;;;7.81;100.00;100393.06;4998329;28;20739;-73
2023/01/12 06:19:10;;;;;;;5.07;2.30;;;;;;;7.87;100.00;100393.09;5002626;28;20195;-74
2023/01/12 06:21:36;;;;;;;9.03;2.87;;;;;;;7.90;100.00;100391.41;5005314;28;20582;-74
2023/01/12 06:24:02;;;;;;;7.90;3.00;;;;;;;7.96;100.00;100376.78;5007188;28;20204;-73
2023/01/12 06:26:27;;;;;;;7.03;2.23;;;;;;;7.96;100.00;100382.81;5001381;28;20231;-74
2023/01/12 06:28:52;;;;;;;5.20;2.30;;;;;;;8.00;100.00;100375.97;5000349;28;20196;-74
2023/01/12 06:31:18;;;;;;;7.20;2.20;;;;;;;8.01;100.00;100372.53;5004878;28;20189;-74
2023/01/12 06:33:43;;;;;;;7.33;2.10;;;;;;;8.03;100.00;100375.97;5003589;28;20239;-74
2023/01/12 06:36:10;;;;;;;5.43;2.03;;;;;;;8.06;100.00;100382.00;5001726;28;20188;-76
2023/01/12 06:38:36;;;;;;;7.27;2.33;;;;;;;8.11;100.00;100374.25;5000250;28;20989;-73
2023/01/12 06:41:03;;;;;;;5.43;2.13;;;;;;;8.14;100.00;100358.81;5007769;28;20243;-74
2023/01/12 06:43:28;;;;;;;7.43;2.37;;;;;;;8.22;100.00;100376.88;5006373;28;20209;-75
2023/01/12 06:45:53;;;;;;;7.23;2.13;;;;;;;8.22;100.00;100374.28;5007206;28;20211;-74
2023/01/12 06:48:21;;;;;;;4.57;2.47;;;;;;;8.22;100.00;100372.59;4998548;28;20710;-73
2023/01/12 06:50:47;;;;;;;5.13;2.53;;;;;;;8.22;100.00;100370.00;4994992;28;20191;-74
2023/01/12 06:53:12;;;;;;;4.87;2.30;;;;;;;8.19;100.00;100359.69;4997218;28;20215;-74
2023/01/12 06:55:38;;;;;;;5.57;2.30;;;;;;;8.18;100.00;100357.97;4992947;28;20185;-74
2023/01/12 06:58:03;;;;;;;3.80;1.87;;;;;;;8.22;100.00;100361.41;4994534;28;20206;-74
2023/01/12 07:00:30;;;;;;;4.67;2.13;;;;;;;8.26;100.00;100354.53;4996740;28;20189;-74
2023/01/12 07:02:55;;;;;;;7.17;2.03;;;;;;;8.23;100.00;100334.75;4999798;28;20276;-74
2023/01/12 07:05:21;;;;;;;9.30;2.73;;;;;;;8.30;100.00;100343.38;5000592;28;20216;-74
2023/01/12 07:07:46;;;;;;;7.20;2.67;;;;;;;8.29;100.00;100339.06;5000662;28;20278;-73
2023/01/12 07:10:12;;;;;;;5.60;2.40;;;;;;;8.30;100.00;100346.81;4996563;28;20281;-73
2023/01/12 07:12:38;;;;;;;6.03;2.50;;;;;;;8.30;100.00;100340.78;4995756;28;20243;-74
2023/01/12 07:15:03;;;;;;;7.93;2.73;;;;;;;8.29;100.00;100358.00;4993869;28;20223;-74
2023/01/12 07:17:29;;;;;;;7.07;2.67;;;;;;;8.28;100.00;100358.84;4995610;28;20185;-74
2023/01/12 07:19:55;;;;;;;5.87;2.40;;;;;;;8.27;100.00;100362.28;5003660;28;20196;-74
2023/01/12 07:22:20;;;;;;;5.93;2.27;;;;;;;8.31;100.00;100355.41;5004621;28;20222;-74
2023/01/12 07:24:45;;;;;;;8.20;2.30;;;;;;;8.29;100.00;100351.97;5005502;28;20880;-75
2023/01/12 07:27:11;;;;;;;5.47;2.43;;;;;;;8.32;100.00;100333.91;5005114;28;20290;-73
2023/01/12 07:29:36;;;;;;;8.07;2.30;;;;;;;8.33;100.00;100338.22;5002974;28;20197;-76
2023/01/12 07:32:02;;;;;;;7.00;2.27;;;;;;;8.34;100.00;100337.38;5012666;28;20228;-74
2023/01/12 07:34:28;;;;;;;6.87;2.40;;;;;;;8.34;100.00;100347.69;5001829;28;20792;-74
2023/01/12 07:36:54;;;;;;;5.47;2.13;;;;;;;8.35;100.00;100341.66;5000883;28;21003;-76
2023/01/12 07:39:19;;;;;;;6.47;2.57;;;;;;;8.37;100.00;100345.97;5003283;28;20194;-74
2023/01/12 07:44:28;;;;;;;3.83;1.60;;;;;;;8.35;100.00;100357.97;5003138;28;20194;-74
2023/01/12 07:46:54;;;;;;;5.80;2.60;;;;;;;8.41;100.00;100370.03;5005505;28;20212;-75
2023/01/12 07:49:19;;;;;;;7.03;2.57;;;;;;;8.39;100.00;100362.28;5006209;28;20196;-77
2023/01/12 07:51:44;;;;;;;8.60;2.17;;;;;;;8.42;100.00;100382.06;4998721;28;20651;-76
2023/01/12 07:54:10;;;;;;;7.17;2.20;;;;;;;8.44;100.00;100379.50;5004800;28;20730;-77
2023/01/12 07:56:35;;;;;;;6.07;2.30;;;;;;;8.43;100.00;100380.34;5005043;28;20870;-75
2023/01/12 07:59:01;;;;;;;5.90;2.00;;;;;;;8.42;100.00;100388.94;5003514;28;20196;-76
2023/01/12 08:01:26;;;;;;;8.13;2.40;;;;;;;8.41;100.00;100385.50;5002946;28;20195;-76
2023/01/12 08:03:51;;;;;;;5.07;2.20;;;;;;;8.47;100.00;100384.66;5005735;28;20236;-76
2023/01/12 08:06:17;;;;;;;6.50;2.20;;;;;;;8.44;100.00;100385.50;5009348;28;20199;-75
2023/01/12 08:08:43;;;;;;;7.60;2.30;;;;;;;8.50;100.00;100385.56;5025423;28;20169;-77
2023/01/12 08:11:09;;;;;;;9.40;2.63;;;;;;;8.52;100.00;100394.16;5023906;28;20181;-73
2023/01/12 08:13:36;;;;;;;8.17;2.30;;;;;;;8.53;100.00;100395.88;5002479;28;20233;-76
2023/01/12 08:16:07;;;;;;;8.17;2.70;;;;;;;8.55;100.00;100393.28;4999288;28;20184;-75
2023/01/12 08:18:38;;;;;;;6.43;2.97;;;;;;;8.61;100.00;100379.53;5003568;28;20192;-76
2023/01/12 08:21:08;;;;;;;6.50;2.67;;;;;;;8.59;100.00;100383.84;5007168;28;20245;-74
2023/01/12 08:23:41;;;;;;;8.40;2.23;;;;;;;8.61;100.00;100392.44;5004607;28;20679;-74
2023/01/12 08:26:13;;;;;;;7.33;2.30;;;;;;;8.61;100.00;100375.25;5005059;28;20583;-74
2023/01/12 08:28:44;;;;;;;7.70;2.87;;;;;;;8.67;100.00;100382.13;4997997;28;20259;-75
2023/01/12 08:31:12;;;;;;;5.87;2.73;;;;;;;8.69;100.00;100378.69;4996211;28;20193;-75
2023/01/12 08:33:39;;;;;;;5.77;2.50;;;;;;;8.72;100.00;100389.88;4998914;28;20207;-74
2023/01/12 08:36:07;;;;;;;4.93;2.40;;;;;;;8.74;100.00;100377.84;5004522;28;20242;-75
2023/01/12 08:38:32;;;;;;;7.87;2.90;;;;;;;8.78;100.00;100362.34;5002080;28;20679;-74
2023/01/12 08:46:26;;;;;;;6.43;2.40;;;;;;;8.84;100.00;100388.16;4997386;28;20321;-75
2023/01/12 08:48:52;;;;;;;7.73;2.50;;;;;;;8.85;100.00;100382.09;5000217;28;20204;-74
2023/01/12 08:51:18;;;;;;;7.60;2.10;;;;;;;8.87;100.00;100395.03;4991578;28;20195;-75
2023/01/12 08:53:43;;;;;;;9.13;2.40;;;;;;;8.90;100.00;100401.91;4995523;28;20213;-75
2023/01/12 08:56:08;;;;;;;7.30;2.47;;;;;;;8.91;100.00;100398.47;4995962;28;20188;-75
2023/01/12 08:58:34;;;;;;;6.73;2.23;;;;;;;8.95;100.00;100400.19;4995271;28;20195;-74
2023/01/12 09:01:07;;;;;;;6.53;2.53;;;;;;;8.95;100.00;100400.19;5001572;28;20233;-74
2023/01/12 09:03:34;;;;;;;5.73;2.00;;;;;;;8.96;100.00;100397.59;4995021;28;20207;-75
2023/01/12 09:06:07;;;;;;;6.73;2.63;;;;;;;9.01;100.00;100405.34;5002820;28;20273;-74
2023/01/12 09:08:33;;;;;;;6.77;2.50;;;;;;;9.03;100.00;100398.44;4993965;28;20184;-75
2023/01/12 09:11:03;;;;;;;10.87;3.20;;;;;;;9.03;100.00;100401.03;4995730;28;20642;-74
2023/01/12 09:13:28;;;;;;;6.93;2.20;;;;;;;9.04;100.00;100400.19;4998142;28;20231;-74
2023/01/12 09:15:53;;;;;;;9.13;2.50;;;;;;;9.09;100.00;100401.03;5000019;28;20612;-74
2023/01/12 09:18:19;;;;;;;8.23;2.77;;;;;;;9.11;100.00;100391.56;4998243;28;20194;-74
2023/01/12 09:20:44;;;;;;;9.60;2.57;;;;;;;9.12;100.00;100393.31;4996179;28;20182;-73
2023/01/12 09:23:09;;;;;;;5.67;2.10;;;;;;;9.14;100.00;100411.34;4998198;28;20238;-74
2023/01/12 09:25:34;;;;;;;5.37;2.07;;;;;;;9.16;100.00;100407.06;4998622;28;21043;-74
2023/01/12 09:28:00;;;;;;;7.87;2.40;;;;;;;9.18;100.00;100410.50;5000119;28;20292;-74
2023/01/12 09:30:25;;;;;;;6.17;2.33;;;;;;;9.22;100.00;100411.34;4997601;28;20200;-74
2023/01/12 09:32:53;;;;;;;6.73;2.20;;;;;;;9.25;100.00;100419.94;4995267;28;20202;-74
2023/01/12 09:35:20;;;;;;;5.50;1.67;;;;;;;9.27;100.00;100409.63;4997662;28;20185;-74
2023/01/12 09:37:45;;;;;;;6.13;2.20;;;;;;;9.30;100.00;100414.78;4995398;28;20403;-76
2023/01/12 09:40:14;;;;;;;6.37;2.23;;;;;;;9.35;100.00;100407.03;5000450;28;20715;-74
2023/01/12 09:48:10;;;;;;;4.87;1.77;;;;;;;9.32;100.00;100401.88;4998737;28;20815;-75
2023/01/12 09:50:40;;;;;;;5.57;2.10;;;;;;;9.33;100.00;100398.44;4999842;28;20200;-75
2023/01/12 09:53:17;;;;;;;4.20;2.10;;;;;;;9.32;100.00;100389.81;5002056;28;20222;-76
2023/01/12 09:55:53;;;;;;;5.33;2.00;;;;;;;9.30;100.00;100381.22;5009049;28;20191;-74
2023/01/12 09:59:06;;;;;;;4.67;2.30;;;;;;;9.30;100.00;100388.97;5003176;28;20200;-74
2023/01/12 10:01:33;;;;;;;5.30;2.07;;;;;;;9.34;100.00;100375.16;4998987;28;20716;-73
2023/01/12 10:04:00;;;;;;;9.00;2.70;;;;;;;9.41;100.00;100373.41;5003236;28;20201;-75
2023/01/12 10:06:25;;;;;;;6.70;2.43;;;;;;;9.64;100.00;100378.50;5004920;28;20262;-73
2023/01/12 10:09:00;;;;;;;6.50;1.97;;;;;;;9.87;99.87;100370.66;5005492;28;20194;-76
2023/01/12 10:11:49;;;;;;;3.67;2.00;;;;;;;10.07;98.55;100373.16;5000552;28;20223;-74
2023/01/12 10:14:18;;;;;;;5.13;2.27;;;;;;;10.12;97.93;100380.91;5001948;28;20205;-73
2023/01/12 10:16:52;;;;;;;5.70;1.70;;;;;;;10.22;97.12;100374.81;5004331;28;20208;-75
2023/01/12 10:19:23;;;;;;;4.53;2.00;;;;;;;10.31;97.55;100368.72;5006933;28;20531;-75
2023/01/12 10:21:51;;;;;;;4.43;1.47;;;;;;;10.40;97.20;100369.53;5002488;28;20276;-74
2023/01/12 10:24:20;;;;;;;3.67;1.67;;;;;;;10.58;96.51;100379.75;5035253;28;20233;-75
2023/01/12 10:26:49;;;;;;;4.80;1.40;;;;;;;10.73;96.06;100385.69;5030225;28;20224;-74
2023/01/12 10:29:14;;;;;;;3.30;1.27;;;;;;;10.86;94.94;100384.72;5008983;28;20188;-74
2023/01/12 10:31:40;;;;;;;4.37;1.43;;;;;;;10.91;94.74;100371.72;5001130;28;20202;-74
2023/01/12 10:34:10;;;;;;;3.47;1.70;;;;;;;10.96;94.26;100376.00;5002209;28;20215;-74
2023/01/12 10:36:52;;;;;;;3.67;1.30;;;;;;;10.97;94.11;100371.69;5006125;28;20193;-74
2023/01/12 10:39:33;;;;;;;3.77;1.47;;;;;;;10.96;94.50;100365.66;5006257;28;20251;-74
2023/01/12 10:45:21;;;;;;;2.97;1.30;;;;;;;10.93;94.64;100365.69;4998362;28;20719;-74
2023/01/12 10:47:48;;;;;;;3.17;1.00;;;;;;;10.89;94.67;100366.56;5001905;28;20184;-76
2023/01/12 10:50:20;;;;;;;3.30;1.27;;;;;;;10.86;94.89;100363.16;5006197;28;20219;-76
2023/01/12 10:52:49;;;;;;;2.60;1.33;;;;;;;10.80;95.24;100361.47;5003313;28;20243;-74
2023/01/12 10:55:22;;;;;;;3.43;0.90;;;;;;;10.79;95.26;100344.22;4998971;28;20711;-74
2023/01/12 10:57:50;;;;;;;1.57;0.90;;;;;;;10.77;95.57;100346.81;5001782;28;20210;-76
2023/01/12 11:00:21;;;;;;;1.50;0.73;;;;;;;10.80;95.67;100340.78;5001168;28;20191;-73
2023/01/12 11:02:47;;;;;;;2.93;1.03;;;;;;;10.79;95.51;100339.06;5002449;28;20252;-74
2023/01/12 11:05:36;;;;;;;1.70;0.90;;;;;;;10.79;95.83;100346.81;4999037;28;20188;-74
2023/01/12 11:08:22;;;;;;;3.77;1.00;;;;;;;10.83;95.07;100364.03;5006135;28;20273;-75
2023/01/12 11:10:47;;;;;;;3.57;1.40;;;;;;;10.81;95.27;100342.50;4998593;28;20246;-75
2023/01/12 11:13:25;;;;;;;2.50;1.20;;;;;;;10.83;95.74;100351.94;5001742;28;20947;-75
2023/01/12 11:16:10;;;;;;;2.67;0.90;;;;;;;10.89;96.09;100356.22;4999736;28;20214;-75
2023/01/12 11:18:46;;;;;;;3.53;1.13;;;;;;;10.95;96.15;100351.00;4998038;28;20194;-76
2023/01/12 11:21:16;;;;;;;1.83;0.97;;;;;;;11.04;95.78;100356.94;5001373;28;20200;-76
2023/01/12 11:23:48;;;;;;;2.43;1.03;;;;;;;11.06;95.45;100348.28;5000331;28;20209;-74
2023/01/12 11:26:21;;;;;;;2.40;1.20;;;;;;;11.15;95.03;100338.72;5003345;28;20213;-75
2023/01/12 11:28:52;;;;;;;2.97;1.10;;;;;;;11.19;95.15;100343.81;4997758;28;20273;-74
2023/01/12 11:31:27;;;;;;;2.83;1.00;;;;;;;11.28;94.49;100346.31;5002786;28;20247;-75
2023/01/12 11:34:02;;;;;;;2.60;0.90;;;;;;;11.33;94.23;100343.69;5000245;28;20227;-75
2023/01/12 11:36:36;;;;;;;3.13;0.90;;;;;;;11.44;94.20;100347.00;4999700;28;20182;-75
2023/01/12 11:39:11;;;;;;;4.00;1.40;;;;;;;11.48;93.70;100331.44;4996893;28;20198;-75
2023/01/12 11:41:40;;;;;;;3.27;1.10;;;;;;;11.51;93.77;100316.69;5003319;28;20236;-75
2023/01/12 11:44:32;;;;;;;1.90;0.87;;;;;;;11.54;93.70;100316.66;5010244;28;20289;-76
2023/01/12 11:47:13;;;;;;;3.67;1.10;;;;;;;11.52;93.84;100320.13;5032450;28;20209;-76
2023/01/12 11:50:00;;;;;;;3.27;0.80;;;;;;;11.58;93.76;100307.94;5008489;28;20192;-74
2023/01/12 11:52:26;;;;;;;3.90;1.13;;;;;;;11.54;94.66;100301.13;5004965;28;20202;-75
2023/01/12 11:54:52;;;;;;;2.53;0.80;;;;;;;11.61;94.28;100309.66;5005609;28;20180;-75
2023/01/12 11:57:32;;;;;;;1.97;0.87;;;;;;;11.67;94.90;100314.75;5006893;28;20195;-75
2023/01/12 12:00:12;;;;;;;3.73;0.93;;;;;;;11.70;93.98;100304.34;5004417;28;20202;-75
2023/01/12 12:02:45;;;;;;;2.50;1.00;;;;;;;11.59;93.98;100296.72;4999635;28;20227;-75
2023/01/12 12:05:49;;;;;;;2.50;0.90;;;;;;;11.45;94.72;100285.66;4997571;28;20309;-73
2023/01/12 12:08:28;;;;;;;1.43;0.83;;;;;;;11.46;95.22;100278.75;4996787;28;20204;-75
2023/01/12 12:11:10;;;;;;;1.70;1.00;;;;;;;11.57;94.55;100290.69;5001561;28;20604;-74
2023/01/12 12:14:00;;;;;;;1.43;0.90;;;;;;;11.66;94.22;100283.69;4996769;28;20225;-75
2023/01/12 12:16:44;;;;;;;2.73;1.00;;;;;;;11.70;93.40;100283.59;5004847;28;20661;-75